FW6956 Weather Reports


Display with metric or nautical units.
time (UTC)temp
F
wind
direction
speed
MPH
gust
MPH
rain 1hr
in
rain 24hr
in
rain mn
in
humidity
%
barometer
mb
20240229111558 29 0 0.0 2.0 0.00 0.25 0.00 69 1027.2
20240229110105 30 0 0.0 1.0 0.00 0.25 0.00 67 1027.1
20240229104608 31 0 0.0 2.0 0.00 0.25 0.00 63 1027.0
20240229103057 31 0 0.0 0.0 0.00 0.25 0.00 61 1026.5
20240229101602 32 0 0.0 2.0 0.00 0.25 0.00 57 1026.4
20240229100058 34 0 0.0 1.0 0.00 0.25 0.00 49 1026.2
20240229094558 35 0 0.0 4.0 0.00 0.25 0.00 50 1026.2
20240229093102 35 0 2.0 11.0 0.00 0.25 0.00 48 1025.9
20240229091609 35 0 0.0 5.0 0.00 0.25 0.00 52 1025.6
20240229090057 35 57 0.0 4.0 0.00 0.25 0.00 50 1025.5
20240229084555 36 69 1.0 11.0 0.00 0.25 0.00 47 1025.6
20240229083103 36 33 1.0 6.0 0.00 0.25 0.00 47 1025.5
20240229081556 36 329 3.0 8.0 0.00 0.25 0.00 45 1025.4
20240229080059 37 0 1.0 8.0 0.00 0.25 0.00 44 1025.4
20240229074607 37 13 2.0 10.0 0.00 0.25 0.00 45 1025.3
20240229073105 37 26 2.0 11.0 0.00 0.25 0.00 44 1025.1
20240229071609 37 49 3.0 10.0 0.00 0.25 0.00 44 1025.0
20240229070100 38 0 1.0 12.0 0.00 0.25 0.00 42 1024.8
20240229064603 38 261 4.0 12.0 0.00 0.25 0.00 42 1024.7
20240229063113 38 333 3.0 12.0 0.00 0.25 0.00 41 1024.6
20240229061606 39 278 1.0 8.0 0.00 0.25 0.00 43 1024.5
20240229060111 39 340 3.0 9.0 0.00 0.25 0.00 42 1024.1
20240229054609 39 333 3.0 16.0 0.00 0.25 0.00 41 1024.1
20240229053105 40 238 4.0 14.0 0.00 0.25 0.00 39 1024.0
20240229051607 39 15 4.0 11.0 0.00 0.25 0.00 41 1023.9
20240229050101 40 343 0.0 3.0 0.00 0.25 0.00 45 1023.8
20240229044604 40 0 2.0 10.0 0.00 0.25 0.25 42 1023.7
20240229043057 40 327 2.0 12.0 0.00 0.25 0.25 38 1023.6
20240229041555 40 282 1.0 7.0 0.00 0.25 0.25 36 1023.3
20240229040059 41 302 2.0 14.0 0.00 0.25 0.25 34 1023.4
20240229034609 41 334 2.0 10.0 0.00 0.25 0.25 34 1023.0
20240229033100 42 360 2.0 11.0 0.00 0.25 0.25 34 1022.6
20240229031557 42 61 3.0 9.0 0.00 0.25 0.25 37 1022.4
20240229030057 43 329 4.0 14.0 0.00 0.25 0.25 36 1021.8
20240229024602 44 325 4.0 13.0 0.00 0.25 0.25 36 1021.4
20240229023100 44 355 2.0 12.0 0.00 0.25 0.25 36 1021.0
20240229021600 45 313 5.0 14.0 0.00 0.25 0.25 33 1020.7
20240229020102 46 299 4.0 15.0 0.00 0.25 0.25 33 1020.5
20240229014608 46 327 4.0 18.0 0.00 0.25 0.25 34 1020.2
20240229013101 47 9 6.0 19.0 0.00 0.25 0.25 34 1019.9
20240229011601 47 256 6.0 20.0 0.00 0.25 0.25 35 1019.6
20240229010057 48 18 6.0 17.0 0.00 0.25 0.25 34 1019.1
20240229004556 48 323 7.0 16.0 0.00 0.25 0.25 34 1018.8
20240229003055 48 300 4.0 13.0 0.00 0.25 0.25 42 1018.1
20240229001601 49 330 10.0 26.0 0.00 0.25 0.25 44 1018.0
20240229000103 51 29 8.0 19.0 0.00 0.25 0.25 56 1017.4
20240228234557 52 330 4.0 13.0 0.00 0.25 0.25 66 1016.7
20240228233056 53 290 4.0 11.0 0.00 0.25 0.25 68 1015.7
20240228231559 54 302 6.0 21.0 0.00 0.25 0.25 66 1015.1
20240228230057 55 244 4.0 20.0 0.00 0.25 0.25 69 1014.5
20240228225036 57 202 5.0 25.0 0.00 0.25 0.25 66 1013.7
20240228223151 58 350 10.0 26.0 0.00 0.25 0.25 69 1013.0
20240228221609 59 337 3.0 16.0 0.01 0.25 0.25 77 1012.4
20240228220109 59 292 4.0 14.0 0.11 0.25 0.25 79 1011.5
20240228214614 60 229 4.0 13.0 0.12 0.25 0.25 84 1011.4
20240228213109 61 263 4.0 15.0 0.17 0.25 0.25 87 1010.7
20240228211600 62 0 1.0 12.0 0.23 0.24 0.24 92 1009.9
20240228210110 63 301 1.0 4.0 0.14 0.14 0.14 93 1009.0
20240228204610 63 0 0.0 4.0 0.13 0.13 0.13 92 1008.0
20240228203109 64 340 1.0 4.0 0.08 0.08 0.08 90 1007.7
20240228201556 67 221 4.0 19.0 0.01 0.01 0.01 80 1007.4
20240228200106 70 205 6.0 20.0 0.00 0.00 0.00 72 1007.2
20240228194558 70 211 6.0 20.0 0.00 0.00 0.00 72 1007.0
20240228193207 70 246 6.0 18.0 0.00 0.00 0.00 73 1006.9
20240228191645 69 206 11.0 22.0 0.00 0.00 0.00 72 1006.8
20240228190111 70 233 7.0 23.0 0.00 0.00 0.00 72 1006.8
20240228184615 70 220 8.0 20.0 0.00 0.00 0.00 72 1006.7
20240228183118 71 202 8.0 22.0 0.00 0.00 0.00 71 1006.9
20240228181605 70 202 6.0 20.0 0.00 0.00 0.00 73 1007.1
20240228180150 68 258 8.0 19.0 0.00 0.00 0.00 75 1007.9
20240228174612 67 219 8.0 21.0 0.00 0.00 0.00 77 1008.1
20240228173129 66 221 8.0 21.0 0.00 0.00 0.00 78 1008.6
20240228171607 66 240 10.0 23.0 0.00 0.00 0.00 78 1008.7
20240228170105 66 246 10.0 25.0 0.00 0.00 0.00 78 1009.0
20240228164612 66 208 6.0 18.0 0.00 0.00 0.00 79 1008.9
20240228163105 65 202 9.0 22.0 0.00 0.00 0.00 79 1008.8
20240228161610 65 229 9.0 19.0 0.00 0.00 0.00 79 1009.1
20240228160109 64 217 8.0 20.0 0.00 0.00 0.00 80 1009.1
20240228154603 64 277 4.0 19.0 0.00 0.01 0.00 80 1009.0
20240228153058 64 212 7.0 17.0 0.00 0.01 0.00 80 1009.1
20240228151600 63 240 8.0 18.0 0.00 0.01 0.00 80 1009.5
20240228150057 64 216 6.0 17.0 0.00 0.01 0.00 80 1009.5
20240228144600 63 228 6.0 20.0 0.00 0.01 0.00 80 1009.3
20240228143058 63 232 5.0 12.0 0.00 0.01 0.00 81 1009.2
20240228141557 62 240 5.0 14.0 0.00 0.01 0.00 81 1009.2
20240228140059 62 192 6.0 15.0 0.00 0.01 0.00 81 1009.3
20240228134603 62 207 7.0 18.0 0.00 0.01 0.00 82 1009.5
20240228133058 61 276 4.0 21.0 0.00 0.01 0.00 82 1009.9
20240228131613 61 223 9.0 21.0 0.00 0.01 0.00 82 1009.6
20240228130100 61 232 7.0 21.0 0.00 0.01 0.00 82 1009.8
20240228124557 61 125 4.0 12.0 0.00 0.01 0.00 82 1009.6
20240228123107 61 208 5.0 21.0 0.00 0.01 0.00 82 1009.5
20240228121617 61 218 5.0 13.0 0.00 0.01 0.00 82 1009.7
20240228120059 61 0 3.0 9.0 0.00 0.01 0.00 82 1009.7
20240228114607 61 217 8.0 21.0 0.00 0.01 0.00 82 1009.4
20240228113059 61 196 5.0 21.0 0.00 0.01 0.00 82 1009.5